sensor_id;sensor_type;location;lat;lon;timestamp;P1;durP1;ratioP1;P2;durP2;ratioP2
59770;SDS011;45649;53.014;6.600;2022-07-29T00:00:57;1.57;;;1.40;;
59770;SDS011;45649;53.014;6.600;2022-07-29T00:03:23;2.03;;;1.60;;
59770;SDS011;45649;53.014;6.600;2022-07-29T00:05:51;2.43;;;1.50;;
59770;SDS011;45649;53.014;6.600;2022-07-29T00:08:18;3.37;;;1.73;;
59770;SDS011;45649;53.014;6.600;2022-07-29T00:10:43;1.63;;;1.30;;
59770;SDS011;45649;53.014;6.600;2022-07-29T00:13:09;2.33;;;1.77;;
59770;SDS011;45649;53.014;6.600;2022-07-29T00:15:35;2.83;;;1.50;;
59770;SDS011;45649;53.014;6.600;2022-07-29T00:18:01;2.53;;;1.50;;
59770;SDS011;45649;53.014;6.600;2022-07-29T00:20:27;2.40;;;1.60;;
59770;SDS011;45649;53.014;6.600;2022-07-29T00:22:53;3.00;;;1.60;;
59770;SDS011;45649;53.014;6.600;2022-07-29T00:25:18;2.43;;;1.60;;
59770;SDS011;45649;53.014;6.600;2022-07-29T00:27:44;1.50;;;1.40;;
59770;SDS011;45649;53.014;6.600;2022-07-29T00:30:13;2.80;;;1.67;;
59770;SDS011;45649;53.014;6.600;2022-07-29T00:32:39;2.90;;;1.57;;
59770;SDS011;45649;53.014;6.600;2022-07-29T00:35:05;1.70;;;1.60;;
59770;SDS011;45649;53.014;6.600;2022-07-29T00:37:49;2.73;;;1.97;;
59770;SDS011;45649;53.014;6.600;2022-07-29T00:40:16;3.13;;;1.80;;
59770;SDS011;45649;53.014;6.600;2022-07-29T00:42:45;2.67;;;1.90;;
59770;SDS011;45649;53.014;6.600;2022-07-29T00:45:12;3.63;;;2.03;;
59770;SDS011;45649;53.014;6.600;2022-07-29T00:47:38;3.87;;;1.90;;
59770;SDS011;45649;53.014;6.600;2022-07-29T00:50:06;4.40;;;1.90;;
59770;SDS011;45649;53.014;6.600;2022-07-29T00:52:33;2.23;;;1.80;;
59770;SDS011;45649;53.014;6.600;2022-07-29T00:55:03;5.20;;;2.10;;
59770;SDS011;45649;53.014;6.600;2022-07-29T00:57:29;2.20;;;2.00;;
59770;SDS011;45649;53.014;6.600;2022-07-29T00:59:55;1.97;;;1.73;;
59770;SDS011;45649;53.014;6.600;2022-07-29T01:02:21;2.33;;;2.07;;
59770;SDS011;45649;53.014;6.600;2022-07-29T01:04:47;2.10;;;1.90;;
59770;SDS011;45649;53.014;6.600;2022-07-29T01:07:13;2.70;;;1.90;;
59770;SDS011;45649;53.014;6.600;2022-07-29T01:09:39;2.23;;;1.80;;
59770;SDS011;45649;53.014;6.600;2022-07-29T01:12:07;4.93;;;2.20;;
59770;SDS011;45649;53.014;6.600;2022-07-29T01:14:34;1.93;;;1.77;;
59770;SDS011;45649;53.014;6.600;2022-07-29T01:28:02;3.90;;;1.80;;
59770;SDS011;45649;53.014;6.600;2022-07-29T01:30:25;3.00;;;1.70;;
59770;SDS011;45649;53.014;6.600;2022-07-29T01:32:54;2.83;;;1.77;;
59770;SDS011;45649;53.014;6.600;2022-07-29T01:35:26;1.87;;;1.60;;
59770;SDS011;45649;53.014;6.600;2022-07-29T01:40:51;3.13;;;1.60;;
59770;SDS011;45649;53.014;6.600;2022-07-29T01:43:27;2.50;;;1.67;;
59770;SDS011;45649;53.014;6.600;2022-07-29T01:46:07;2.93;;;1.63;;
59770;SDS011;45649;53.014;6.600;2022-07-29T01:48:47;1.93;;;1.60;;
59770;SDS011;45649;53.014;6.600;2022-07-29T01:51:19;1.73;;;1.60;;
59770;SDS011;45649;53.014;6.600;2022-07-29T01:56:26;1.80;;;1.70;;
59770;SDS011;45649;53.014;6.600;2022-07-29T01:58:56;1.57;;;1.47;;
59770;SDS011;45649;53.014;6.600;2022-07-29T02:01:23;1.67;;;1.53;;
59770;SDS011;45649;53.014;6.600;2022-07-29T02:03:50;1.73;;;1.53;;
59770;SDS011;45649;53.014;6.600;2022-07-29T02:06:18;1.90;;;1.70;;
59770;SDS011;45649;53.014;6.600;2022-07-29T02:08:46;1.83;;;1.70;;
59770;SDS011;45649;53.014;6.600;2022-07-29T02:11:12;2.47;;;1.70;;
59770;SDS011;45649;53.014;6.600;2022-07-29T02:13:38;3.43;;;1.60;;
59770;SDS011;45649;53.014;6.600;2022-07-29T02:16:06;2.93;;;1.60;;
59770;SDS011;45649;53.014;6.600;2022-07-29T02:18:33;2.90;;;1.40;;
59770;SDS011;45649;53.014;6.600;2022-07-29T02:21:02;2.03;;;1.50;;
59770;SDS011;45649;53.014;6.600;2022-07-29T02:23:28;3.10;;;2.00;;
59770;SDS011;45649;53.014;6.600;2022-07-29T02:25:57;1.67;;;1.57;;
59770;SDS011;45649;53.014;6.600;2022-07-29T02:28:28;2.60;;;1.50;;
59770;SDS011;45649;53.014;6.600;2022-07-29T02:30:56;2.17;;;1.40;;
59770;SDS011;45649;53.014;6.600;2022-07-29T02:33:25;1.77;;;1.67;;
59770;SDS011;45649;53.014;6.600;2022-07-29T02:35:53;3.27;;;1.80;;
59770;SDS011;45649;53.014;6.600;2022-07-29T02:38:21;3.00;;;1.90;;
59770;SDS011;45649;53.014;6.600;2022-07-29T02:41:09;2.63;;;1.80;;
59770;SDS011;45649;53.014;6.600;2022-07-29T02:43:37;1.83;;;1.67;;
59770;SDS011;45649;53.014;6.600;2022-07-29T02:46:06;3.40;;;1.90;;
59770;SDS011;45649;53.014;6.600;2022-07-29T02:48:44;3.00;;;1.70;;
59770;SDS011;45649;53.014;6.600;2022-07-29T02:51:23;3.07;;;1.93;;
59770;SDS011;45649;53.014;6.600;2022-07-29T02:53:53;2.90;;;2.10;;
59770;SDS011;45649;53.014;6.600;2022-07-29T02:56:23;3.20;;;2.03;;
59770;SDS011;45649;53.014;6.600;2022-07-29T02:58:56;2.33;;;1.70;;
59770;SDS011;45649;53.014;6.600;2022-07-29T03:01:24;2.97;;;1.97;;
59770;SDS011;45649;53.014;6.600;2022-07-29T03:03:55;4.50;;;1.70;;
59770;SDS011;45649;53.014;6.600;2022-07-29T03:06:22;2.13;;;1.70;;
59770;SDS011;45649;53.014;6.600;2022-07-29T03:08:50;1.87;;;1.70;;
59770;SDS011;45649;53.014;6.600;2022-07-29T03:11:16;2.80;;;1.70;;
59770;SDS011;45649;53.014;6.600;2022-07-29T03:13:43;2.67;;;2.00;;
59770;SDS011;45649;53.014;6.600;2022-07-29T03:16:09;3.17;;;1.80;;
59770;SDS011;45649;53.014;6.600;2022-07-29T03:18:36;2.10;;;1.93;;
59770;SDS011;45649;53.014;6.600;2022-07-29T03:21:03;3.63;;;1.77;;
59770;SDS011;45649;53.014;6.600;2022-07-29T03:23:29;1.97;;;1.67;;
59770;SDS011;45649;53.014;6.600;2022-07-29T03:25:55;3.27;;;1.80;;
59770;SDS011;45649;53.014;6.600;2022-07-29T03:28:21;3.87;;;2.13;;
59770;SDS011;45649;53.014;6.600;2022-07-29T03:30:48;4.43;;;1.90;;
59770;SDS011;45649;53.014;6.600;2022-07-29T03:33:14;2.47;;;1.93;;
59770;SDS011;45649;53.014;6.600;2022-07-29T03:35:40;2.83;;;1.80;;
59770;SDS011;45649;53.014;6.600;2022-07-29T03:38:06;5.83;;;1.80;;
59770;SDS011;45649;53.014;6.600;2022-07-29T03:40:35;3.00;;;1.70;;
59770;SDS011;45649;53.014;6.600;2022-07-29T03:43:06;3.33;;;1.83;;
59770;SDS011;45649;53.014;6.600;2022-07-29T03:45:35;5.03;;;1.70;;
59770;SDS011;45649;53.014;6.600;2022-07-29T03:48:05;2.97;;;1.60;;
59770;SDS011;45649;53.014;6.600;2022-07-29T03:50:33;2.23;;;1.90;;
59770;SDS011;45649;53.014;6.600;2022-07-29T03:53:00;3.93;;;1.77;;
59770;SDS011;45649;53.014;6.600;2022-07-29T03:55:28;3.53;;;1.80;;
59770;SDS011;45649;53.014;6.600;2022-07-29T03:57:57;2.50;;;1.80;;
59770;SDS011;45649;53.014;6.600;2022-07-29T04:00:25;3.30;;;1.40;;
59770;SDS011;45649;53.014;6.600;2022-07-29T04:02:52;5.60;;;1.90;;
59770;SDS011;45649;53.014;6.600;2022-07-29T04:05:18;2.57;;;1.70;;
59770;SDS011;45649;53.014;6.600;2022-07-29T04:07:44;2.37;;;1.70;;
59770;SDS011;45649;53.014;6.600;2022-07-29T04:10:11;2.30;;;1.63;;
59770;SDS011;45649;53.014;6.600;2022-07-29T04:12:38;2.97;;;1.90;;
59770;SDS011;45649;53.014;6.600;2022-07-29T04:15:04;4.77;;;1.60;;
59770;SDS011;45649;53.014;6.600;2022-07-29T04:17:31;4.37;;;2.00;;
59770;SDS011;45649;53.014;6.600;2022-07-29T04:19:58;2.73;;;1.83;;
59770;SDS011;45649;53.014;6.600;2022-07-29T04:22:24;2.77;;;1.80;;
59770;SDS011;45649;53.014;6.600;2022-07-29T04:24:49;1.70;;;1.60;;
59770;SDS011;45649;53.014;6.600;2022-07-29T04:27:15;3.00;;;2.20;;
59770;SDS011;45649;53.014;6.600;2022-07-29T04:29:41;2.80;;;1.70;;
59770;SDS011;45649;53.014;6.600;2022-07-29T04:32:06;1.80;;;1.53;;
59770;SDS011;45649;53.014;6.600;2022-07-29T04:34:32;2.97;;;1.80;;
59770;SDS011;45649;53.014;6.600;2022-07-29T04:36:58;2.43;;;1.70;;
59770;SDS011;45649;53.014;6.600;2022-07-29T04:39:24;2.43;;;1.50;;
59770;SDS011;45649;53.014;6.600;2022-07-29T04:41:50;4.70;;;1.73;;
59770;SDS011;45649;53.014;6.600;2022-07-29T04:44:17;2.60;;;1.67;;
59770;SDS011;45649;53.014;6.600;2022-07-29T04:46:43;2.63;;;1.90;;
59770;SDS011;45649;53.014;6.600;2022-07-29T04:49:10;5.07;;;1.83;;
59770;SDS011;45649;53.014;6.600;2022-07-29T04:51:36;1.77;;;1.67;;
59770;SDS011;45649;53.014;6.600;2022-07-29T04:54:02;2.75;;;1.70;;
59770;SDS011;45649;53.014;6.600;2022-07-29T04:56:29;2.17;;;1.50;;
59770;SDS011;45649;53.014;6.600;2022-07-29T04:58:54;3.40;;;2.03;;
59770;SDS011;45649;53.014;6.600;2022-07-29T05:01:20;2.53;;;1.70;;
59770;SDS011;45649;53.014;6.600;2022-07-29T05:03:46;1.73;;;1.50;;
59770;SDS011;45649;53.014;6.600;2022-07-29T05:06:12;3.77;;;1.70;;
59770;SDS011;45649;53.014;6.600;2022-07-29T05:08:38;4.00;;;1.60;;
59770;SDS011;45649;53.014;6.600;2022-07-29T05:11:04;4.60;;;1.97;;
59770;SDS011;45649;53.014;6.600;2022-07-29T05:13:30;4.20;;;1.80;;
59770;SDS011;45649;53.014;6.600;2022-07-29T05:15:56;3.87;;;1.73;;
59770;SDS011;45649;53.014;6.600;2022-07-29T05:18:42;3.73;;;2.10;;
59770;SDS011;45649;53.014;6.600;2022-07-29T05:21:09;3.53;;;1.77;;
59770;SDS011;45649;53.014;6.600;2022-07-29T05:23:35;2.67;;;1.97;;
59770;SDS011;45649;53.014;6.600;2022-07-29T05:26:01;2.80;;;1.80;;
59770;SDS011;45649;53.014;6.600;2022-07-29T05:28:27;4.07;;;2.17;;
59770;SDS011;45649;53.014;6.600;2022-07-29T05:30:52;3.53;;;1.70;;
59770;SDS011;45649;53.014;6.600;2022-07-29T05:33:19;5.83;;;1.90;;
59770;SDS011;45649;53.014;6.600;2022-07-29T05:35:44;1.93;;;1.77;;
59770;SDS011;45649;53.014;6.600;2022-07-29T05:38:10;4.43;;;1.83;;
59770;SDS011;45649;53.014;6.600;2022-07-29T05:40:36;4.37;;;1.93;;
59770;SDS011;45649;53.014;6.600;2022-07-29T05:43:01;6.37;;;2.23;;
59770;SDS011;45649;53.014;6.600;2022-07-29T05:45:27;4.10;;;2.10;;
59770;SDS011;45649;53.014;6.600;2022-07-29T05:47:53;3.13;;;2.00;;
59770;SDS011;45649;53.014;6.600;2022-07-29T05:50:20;5.07;;;2.23;;
59770;SDS011;45649;53.014;6.600;2022-07-29T05:52:45;2.83;;;1.90;;
59770;SDS011;45649;53.014;6.600;2022-07-29T05:55:11;4.47;;;2.00;;
59770;SDS011;45649;53.014;6.600;2022-07-29T05:57:37;5.50;;;2.10;;
59770;SDS011;45649;53.014;6.600;2022-07-29T06:00:03;6.23;;;2.07;;
59770;SDS011;45649;53.014;6.600;2022-07-29T06:02:29;4.50;;;2.27;;
59770;SDS011;45649;53.014;6.600;2022-07-29T06:04:55;3.93;;;2.13;;
59770;SDS011;45649;53.014;6.600;2022-07-29T06:07:22;4.03;;;1.97;;
59770;SDS011;45649;53.014;6.600;2022-07-29T06:09:48;2.60;;;2.00;;
59770;SDS011;45649;53.014;6.600;2022-07-29T06:12:14;3.83;;;1.93;;
59770;SDS011;45649;53.014;6.600;2022-07-29T06:14:39;2.23;;;2.00;;
59770;SDS011;45649;53.014;6.600;2022-07-29T06:17:06;3.25;;;2.00;;
59770;SDS011;45649;53.014;6.600;2022-07-29T06:19:33;2.90;;;1.90;;
59770;SDS011;45649;53.014;6.600;2022-07-29T06:22:00;3.70;;;2.00;;
59770;SDS011;45649;53.014;6.600;2022-07-29T06:24:26;4.00;;;2.20;;
59770;SDS011;45649;53.014;6.600;2022-07-29T06:26:52;3.07;;;2.00;;
59770;SDS011;45649;53.014;6.600;2022-07-29T06:29:18;4.33;;;2.10;;
59770;SDS011;45649;53.014;6.600;2022-07-29T06:31:44;3.07;;;1.90;;
59770;SDS011;45649;53.014;6.600;2022-07-29T06:34:10;3.67;;;2.50;;
59770;SDS011;45649;53.014;6.600;2022-07-29T06:36:36;4.13;;;2.10;;
59770;SDS011;45649;53.014;6.600;2022-07-29T06:39:05;2.67;;;1.97;;
59770;SDS011;45649;53.014;6.600;2022-07-29T06:41:32;3.37;;;2.23;;
59770;SDS011;45649;53.014;6.600;2022-07-29T06:43:58;3.87;;;2.20;;
59770;SDS011;45649;53.014;6.600;2022-07-29T06:46:24;4.80;;;2.40;;
59770;SDS011;45649;53.014;6.600;2022-07-29T06:48:50;3.20;;;2.10;;
59770;SDS011;45649;53.014;6.600;2022-07-29T06:51:16;4.07;;;2.00;;
59770;SDS011;45649;53.014;6.600;2022-07-29T06:53:43;5.60;;;2.30;;
59770;SDS011;45649;53.014;6.600;2022-07-29T06:56:10;2.83;;;1.90;;
59770;SDS011;45649;53.014;6.600;2022-07-29T06:58:38;4.13;;;2.10;;
59770;SDS011;45649;53.014;6.600;2022-07-29T07:01:05;3.60;;;2.40;;
59770;SDS011;45649;53.014;6.600;2022-07-29T07:03:31;3.27;;;1.90;;
59770;SDS011;45649;53.014;6.600;2022-07-29T07:05:57;2.97;;;2.10;;
59770;SDS011;45649;53.014;6.600;2022-07-29T07:08:23;5.13;;;2.60;;
59770;SDS011;45649;53.014;6.600;2022-07-29T07:10:50;3.33;;;2.07;;
59770;SDS011;45649;53.014;6.600;2022-07-29T07:13:16;3.97;;;2.07;;
59770;SDS011;45649;53.014;6.600;2022-07-29T07:15:43;3.70;;;2.47;;
59770;SDS011;45649;53.014;6.600;2022-07-29T07:18:10;4.03;;;2.10;;
59770;SDS011;45649;53.014;6.600;2022-07-29T07:20:36;3.20;;;2.40;;
59770;SDS011;45649;53.014;6.600;2022-07-29T07:23:02;3.93;;;2.10;;
59770;SDS011;45649;53.014;6.600;2022-07-29T07:25:28;5.27;;;2.13;;
59770;SDS011;45649;53.014;6.600;2022-07-29T07:27:54;3.20;;;2.00;;
59770;SDS011;45649;53.014;6.600;2022-07-29T07:30:20;3.97;;;2.40;;
59770;SDS011;45649;53.014;6.600;2022-07-29T07:32:46;3.97;;;2.30;;
59770;SDS011;45649;53.014;6.600;2022-07-29T07:35:12;4.57;;;2.50;;
59770;SDS011;45649;53.014;6.600;2022-07-29T07:37:38;3.20;;;2.10;;
59770;SDS011;45649;53.014;6.600;2022-07-29T07:40:05;2.50;;;2.30;;
59770;SDS011;45649;53.014;6.600;2022-07-29T07:42:32;3.63;;;2.30;;
59770;SDS011;45649;53.014;6.600;2022-07-29T07:44:58;2.37;;;1.80;;
59770;SDS011;45649;53.014;6.600;2022-07-29T07:47:25;2.43;;;2.23;;
59770;SDS011;45649;53.014;6.600;2022-07-29T07:49:51;6.40;;;2.33;;
59770;SDS011;45649;53.014;6.600;2022-07-29T07:52:18;4.00;;;2.30;;
59770;SDS011;45649;53.014;6.600;2022-07-29T07:54:45;3.73;;;2.20;;
59770;SDS011;45649;53.014;6.600;2022-07-29T07:57:12;4.37;;;2.50;;
59770;SDS011;45649;53.014;6.600;2022-07-29T07:59:39;2.40;;;2.00;;
59770;SDS011;45649;53.014;6.600;2022-07-29T08:02:05;2.88;;;2.28;;
59770;SDS011;45649;53.014;6.600;2022-07-29T08:04:31;2.60;;;2.30;;
59770;SDS011;45649;53.014;6.600;2022-07-29T08:06:57;3.43;;;2.30;;
59770;SDS011;45649;53.014;6.600;2022-07-29T08:09:24;3.37;;;2.50;;
59770;SDS011;45649;53.014;6.600;2022-07-29T08:11:51;5.67;;;2.23;;
59770;SDS011;45649;53.014;6.600;2022-07-29T08:14:18;5.10;;;2.30;;
59770;SDS011;45649;53.014;6.600;2022-07-29T08:16:44;5.00;;;2.30;;
59770;SDS011;45649;53.014;6.600;2022-07-29T08:19:10;2.83;;;2.10;;
59770;SDS011;45649;53.014;6.600;2022-07-29T08:21:36;3.70;;;2.50;;
59770;SDS011;45649;53.014;6.600;2022-07-29T08:24:02;2.60;;;2.40;;
59770;SDS011;45649;53.014;6.600;2022-07-29T08:26:46;5.07;;;2.23;;
59770;SDS011;45649;53.014;6.600;2022-07-29T08:29:12;2.87;;;2.37;;
59770;SDS011;45649;53.014;6.600;2022-07-29T08:31:39;3.63;;;2.50;;
59770;SDS011;45649;53.014;6.600;2022-07-29T08:34:05;4.17;;;2.33;;
59770;SDS011;45649;53.014;6.600;2022-07-29T08:36:31;3.53;;;2.30;;
59770;SDS011;45649;53.014;6.600;2022-07-29T08:38:58;4.27;;;2.73;;
59770;SDS011;45649;53.014;6.600;2022-07-29T08:41:24;2.27;;;2.07;;
59770;SDS011;45649;53.014;6.600;2022-07-29T08:43:50;3.13;;;2.30;;
59770;SDS011;45649;53.014;6.600;2022-07-29T08:46:17;3.13;;;2.53;;
59770;SDS011;45649;53.014;6.600;2022-07-29T08:48:44;3.17;;;2.20;;
59770;SDS011;45649;53.014;6.600;2022-07-29T08:51:14;4.67;;;2.40;;
59770;SDS011;45649;53.014;6.600;2022-07-29T08:53:43;3.40;;;2.47;;
59770;SDS011;45649;53.014;6.600;2022-07-29T08:56:13;4.03;;;2.40;;
59770;SDS011;45649;53.014;6.600;2022-07-29T08:58:39;4.93;;;2.57;;
59770;SDS011;45649;53.014;6.600;2022-07-29T09:01:06;5.70;;;2.43;;
59770;SDS011;45649;53.014;6.600;2022-07-29T09:03:33;5.27;;;2.40;;
59770;SDS011;45649;53.014;6.600;2022-07-29T09:06:01;3.60;;;2.50;;
59770;SDS011;45649;53.014;6.600;2022-07-29T09:08:28;3.50;;;2.50;;
59770;SDS011;45649;53.014;6.600;2022-07-29T09:10:55;3.83;;;2.30;;
59770;SDS011;45649;53.014;6.600;2022-07-29T09:13:22;4.93;;;2.80;;
59770;SDS011;45649;53.014;6.600;2022-07-29T09:15:50;2.97;;;2.40;;
59770;SDS011;45649;53.014;6.600;2022-07-29T09:18:35;4.27;;;2.60;;
59770;SDS011;45649;53.014;6.600;2022-07-29T09:21:02;5.80;;;2.60;;
59770;SDS011;45649;53.014;6.600;2022-07-29T09:24:06;7.00;;;2.90;;
59770;SDS011;45649;53.014;6.600;2022-07-29T09:26:35;4.07;;;2.80;;
59770;SDS011;45649;53.014;6.600;2022-07-29T09:29:10;4.60;;;2.50;;
59770;SDS011;45649;53.014;6.600;2022-07-29T09:31:44;3.93;;;2.67;;
59770;SDS011;45649;53.014;6.600;2022-07-29T09:34:12;4.17;;;2.50;;
59770;SDS011;45649;53.014;6.600;2022-07-29T09:36:41;3.13;;;2.03;;
59770;SDS011;45649;53.014;6.600;2022-07-29T09:39:08;2.50;;;2.30;;
59770;SDS011;45649;53.014;6.600;2022-07-29T09:41:47;3.77;;;2.60;;
59770;SDS011;45649;53.014;6.600;2022-07-29T09:44:14;4.07;;;2.50;;
59770;SDS011;45649;53.014;6.600;2022-07-29T09:46:51;5.17;;;2.47;;
59770;SDS011;45649;53.014;6.600;2022-07-29T09:49:18;3.43;;;3.10;;
59770;SDS011;45649;53.014;6.600;2022-07-29T09:51:44;5.07;;;3.00;;
59770;SDS011;45649;53.014;6.600;2022-07-29T09:56:48;7.20;;;2.90;;
59770;SDS011;45649;53.014;6.600;2022-07-29T09:59:15;6.47;;;3.10;;
59770;SDS011;45649;53.014;6.600;2022-07-29T10:01:41;4.33;;;2.80;;
59770;SDS011;45649;53.014;6.600;2022-07-29T10:04:06;6.67;;;3.20;;
59770;SDS011;45649;53.014;6.600;2022-07-29T10:06:32;5.00;;;3.00;;
59770;SDS011;45649;53.014;6.600;2022-07-29T10:09:08;5.50;;;2.95;;
59770;SDS011;45649;53.014;6.600;2022-07-29T10:11:35;3.73;;;2.70;;
59770;SDS011;45649;53.014;6.600;2022-07-29T10:14:01;4.33;;;2.80;;
59770;SDS011;45649;53.014;6.600;2022-07-29T10:16:28;3.10;;;2.80;;
59770;SDS011;45649;53.014;6.600;2022-07-29T10:18:58;5.43;;;2.77;;
59770;SDS011;45649;53.014;6.600;2022-07-29T10:21:27;4.27;;;2.83;;
59770;SDS011;45649;53.014;6.600;2022-07-29T10:23:54;3.77;;;2.70;;
59770;SDS011;45649;53.014;6.600;2022-07-29T10:26:22;5.87;;;3.43;;
59770;SDS011;45649;53.014;6.600;2022-07-29T10:28:48;3.33;;;2.60;;
59770;SDS011;45649;53.014;6.600;2022-07-29T10:35:04;5.90;;;2.70;;
59770;SDS011;45649;53.014;6.600;2022-07-29T10:37:33;4.53;;;2.87;;
59770;SDS011;45649;53.014;6.600;2022-07-29T10:43:35;5.97;;;2.60;;
59770;SDS011;45649;53.014;6.600;2022-07-29T10:46:03;5.53;;;2.70;;
59770;SDS011;45649;53.014;6.600;2022-07-29T10:48:30;3.80;;;2.80;;
59770;SDS011;45649;53.014;6.600;2022-07-29T10:56:27;3.50;;;2.57;;
59770;SDS011;45649;53.014;6.600;2022-07-29T11:01:41;5.00;;;2.27;;
59770;SDS011;45649;53.014;6.600;2022-07-29T11:04:07;5.27;;;2.90;;
59770;SDS011;45649;53.014;6.600;2022-07-29T11:09:31;4.63;;;2.83;;
59770;SDS011;45649;53.014;6.600;2022-07-29T11:11:57;5.85;;;2.92;;
59770;SDS011;45649;53.014;6.600;2022-07-29T11:15:24;3.73;;;2.77;;
59770;SDS011;45649;53.014;6.600;2022-07-29T11:17:26;3.30;;;2.93;;
59770;SDS011;45649;53.014;6.600;2022-07-29T11:20:30;6.43;;;3.10;;
59770;SDS011;45649;53.014;6.600;2022-07-29T11:22:57;5.93;;;2.73;;
59770;SDS011;45649;53.014;6.600;2022-07-29T11:25:23;6.10;;;3.10;;
59770;SDS011;45649;53.014;6.600;2022-07-29T11:27:50;5.67;;;3.40;;
59770;SDS011;45649;53.014;6.600;2022-07-29T11:30:17;3.30;;;2.40;;
59770;SDS011;45649;53.014;6.600;2022-07-29T11:32:43;4.43;;;3.00;;
59770;SDS011;45649;53.014;6.600;2022-07-29T11:35:11;3.27;;;2.97;;
59770;SDS011;45649;53.014;6.600;2022-07-29T11:37:42;5.30;;;3.57;;
59770;SDS011;45649;53.014;6.600;2022-07-29T11:40:10;3.40;;;2.90;;
59770;SDS011;45649;53.014;6.600;2022-07-29T11:42:42;4.33;;;2.63;;
59770;SDS011;45649;53.014;6.600;2022-07-29T11:45:16;4.20;;;2.80;;
59770;SDS011;45649;53.014;6.600;2022-07-29T11:50:32;5.10;;;2.73;;
59770;SDS011;45649;53.014;6.600;2022-07-29T11:53:00;5.37;;;2.93;;
59770;SDS011;45649;53.014;6.600;2022-07-29T11:55:28;5.17;;;3.03;;
59770;SDS011;45649;53.014;6.600;2022-07-29T11:57:55;6.63;;;3.23;;
59770;SDS011;45649;53.014;6.600;2022-07-29T12:00:31;5.77;;;3.00;;
59770;SDS011;45649;53.014;6.600;2022-07-29T12:03:08;5.13;;;2.73;;
59770;SDS011;45649;53.014;6.600;2022-07-29T12:05:43;3.43;;;2.90;;
59770;SDS011;45649;53.014;6.600;2022-07-29T12:10:47;5.53;;;2.73;;
59770;SDS011;45649;53.014;6.600;2022-07-29T12:13:18;6.70;;;3.30;;
59770;SDS011;45649;53.014;6.600;2022-07-29T12:15:52;3.53;;;3.00;;
59770;SDS011;45649;53.014;6.600;2022-07-29T12:18:20;4.07;;;2.53;;
59770;SDS011;45649;53.014;6.600;2022-07-29T12:20:46;5.20;;;2.40;;
59770;SDS011;45649;53.014;6.600;2022-07-29T12:23:13;4.47;;;2.30;;
59770;SDS011;45649;53.014;6.600;2022-07-29T12:25:41;5.63;;;2.20;;
59770;SDS011;45649;53.014;6.600;2022-07-29T12:28:14;6.00;;;2.60;;
59770;SDS011;45649;53.014;6.600;2022-07-29T12:30:44;3.53;;;2.60;;
59770;SDS011;45649;53.014;6.600;2022-07-29T12:33:17;6.13;;;2.67;;
59770;SDS011;45649;53.014;6.600;2022-07-29T12:36:06;4.17;;;2.60;;
59770;SDS011;45649;53.014;6.600;2022-07-29T12:38:33;5.90;;;3.10;;
59770;SDS011;45649;53.014;6.600;2022-07-29T12:40:59;4.83;;;2.80;;
59770;SDS011;45649;53.014;6.600;2022-07-29T12:43:26;2.83;;;2.20;;
59770;SDS011;45649;53.014;6.600;2022-07-29T12:45:56;2.47;;;1.93;;
59770;SDS011;45649;53.014;6.600;2022-07-29T12:48:32;4.70;;;2.40;;
59770;SDS011;45649;53.014;6.600;2022-07-29T12:51:03;7.33;;;2.47;;
59770;SDS011;45649;53.014;6.600;2022-07-29T12:53:31;4.57;;;2.40;;
59770;SDS011;45649;53.014;6.600;2022-07-29T12:55:57;4.43;;;2.97;;
59770;SDS011;45649;53.014;6.600;2022-07-29T13:01:13;4.40;;;2.60;;
59770;SDS011;45649;53.014;6.600;2022-07-29T13:03:47;3.80;;;2.73;;
59770;SDS011;45649;53.014;6.600;2022-07-29T13:09:14;5.50;;;2.70;;
59770;SDS011;45649;53.014;6.600;2022-07-29T13:14:09;6.13;;;2.70;;
59770;SDS011;45649;53.014;6.600;2022-07-29T13:16:36;4.13;;;2.40;;
59770;SDS011;45649;53.014;6.600;2022-07-29T13:19:31;6.03;;;2.60;;
59770;SDS011;45649;53.014;6.600;2022-07-29T13:21:59;4.07;;;2.50;;
59770;SDS011;45649;53.014;6.600;2022-07-29T13:24:27;1.63;;;1.53;;
59770;SDS011;45649;53.014;6.600;2022-07-29T13:26:54;2.20;;;2.00;;
59770;SDS011;45649;53.014;6.600;2022-07-29T13:29:20;4.43;;;2.20;;
59770;SDS011;45649;53.014;6.600;2022-07-29T13:31:45;4.23;;;2.30;;
59770;SDS011;45649;53.014;6.600;2022-07-29T13:34:11;3.97;;;2.00;;
59770;SDS011;45649;53.014;6.600;2022-07-29T13:36:37;4.43;;;2.27;;
59770;SDS011;45649;53.014;6.600;2022-07-29T13:39:03;4.77;;;2.20;;
59770;SDS011;45649;53.014;6.600;2022-07-29T13:41:29;5.93;;;2.50;;
59770;SDS011;45649;53.014;6.600;2022-07-29T13:43:55;2.73;;;2.00;;
59770;SDS011;45649;53.014;6.600;2022-07-29T13:46:21;4.50;;;2.40;;
59770;SDS011;45649;53.014;6.600;2022-07-29T13:48:47;6.40;;;2.67;;
59770;SDS011;45649;53.014;6.600;2022-07-29T13:51:14;3.43;;;2.00;;
59770;SDS011;45649;53.014;6.600;2022-07-29T13:53:40;5.07;;;2.60;;
59770;SDS011;45649;53.014;6.600;2022-07-29T13:56:06;4.60;;;2.57;;
59770;SDS011;45649;53.014;6.600;2022-07-29T13:58:32;4.70;;;2.30;;
59770;SDS011;45649;53.014;6.600;2022-07-29T14:00:58;5.10;;;2.80;;
59770;SDS011;45649;53.014;6.600;2022-07-29T14:03:24;3.70;;;2.27;;
59770;SDS011;45649;53.014;6.600;2022-07-29T14:05:50;6.23;;;2.63;;
59770;SDS011;45649;53.014;6.600;2022-07-29T14:08:16;6.67;;;2.77;;
59770;SDS011;45649;53.014;6.600;2022-07-29T14:10:42;2.83;;;2.30;;
59770;SDS011;45649;53.014;6.600;2022-07-29T14:13:07;2.57;;;2.37;;
59770;SDS011;45649;53.014;6.600;2022-07-29T14:15:33;4.00;;;2.50;;
59770;SDS011;45649;53.014;6.600;2022-07-29T14:17:59;4.97;;;2.57;;
59770;SDS011;45649;53.014;6.600;2022-07-29T14:20:25;6.57;;;2.77;;
59770;SDS011;45649;53.014;6.600;2022-07-29T14:22:54;4.40;;;2.30;;
59770;SDS011;45649;53.014;6.600;2022-07-29T14:25:20;5.13;;;2.60;;
59770;SDS011;45649;53.014;6.600;2022-07-29T14:27:47;2.13;;;1.90;;
59770;SDS011;45649;53.014;6.600;2022-07-29T14:30:13;3.07;;;2.10;;
59770;SDS011;45649;53.014;6.600;2022-07-29T14:32:39;3.93;;;2.37;;
59770;SDS011;45649;53.014;6.600;2022-07-29T14:35:06;5.27;;;2.30;;
59770;SDS011;45649;53.014;6.600;2022-07-29T14:37:32;3.43;;;2.20;;
59770;SDS011;45649;53.014;6.600;2022-07-29T14:40:00;2.67;;;1.90;;
59770;SDS011;45649;53.014;6.600;2022-07-29T14:42:28;2.87;;;2.10;;
59770;SDS011;45649;53.014;6.600;2022-07-29T14:44:56;4.83;;;2.03;;
59770;SDS011;45649;53.014;6.600;2022-07-29T14:47:22;2.93;;;1.90;;
59770;SDS011;45649;53.014;6.600;2022-07-29T14:49:49;3.27;;;2.10;;
59770;SDS011;45649;53.014;6.600;2022-07-29T14:52:15;3.87;;;1.73;;
59770;SDS011;45649;53.014;6.600;2022-07-29T14:54:40;4.03;;;2.10;;
59770;SDS011;45649;53.014;6.600;2022-07-29T14:57:06;4.77;;;2.10;;
59770;SDS011;45649;53.014;6.600;2022-07-29T14:59:32;3.83;;;2.23;;
59770;SDS011;45649;53.014;6.600;2022-07-29T15:01:58;4.37;;;2.00;;
59770;SDS011;45649;53.014;6.600;2022-07-29T15:04:23;3.87;;;1.70;;
59770;SDS011;45649;53.014;6.600;2022-07-29T15:06:50;5.23;;;2.10;;
59770;SDS011;45649;53.014;6.600;2022-07-29T15:09:16;3.00;;;2.10;;
59770;SDS011;45649;53.014;6.600;2022-07-29T15:11:43;3.83;;;2.33;;
59770;SDS011;45649;53.014;6.600;2022-07-29T15:14:09;3.30;;;1.90;;
59770;SDS011;45649;53.014;6.600;2022-07-29T15:16:36;3.20;;;1.97;;
59770;SDS011;45649;53.014;6.600;2022-07-29T15:19:03;4.00;;;2.33;;
59770;SDS011;45649;53.014;6.600;2022-07-29T15:21:29;2.80;;;1.97;;
59770;SDS011;45649;53.014;6.600;2022-07-29T15:23:55;2.40;;;2.00;;
59770;SDS011;45649;53.014;6.600;2022-07-29T15:26:21;3.27;;;1.60;;
59770;SDS011;45649;53.014;6.600;2022-07-29T15:28:47;3.40;;;1.90;;
59770;SDS011;45649;53.014;6.600;2022-07-29T15:31:12;4.27;;;2.13;;
59770;SDS011;45649;53.014;6.600;2022-07-29T15:33:39;2.93;;;2.00;;
59770;SDS011;45649;53.014;6.600;2022-07-29T15:36:05;3.27;;;1.90;;
59770;SDS011;45649;53.014;6.600;2022-07-29T15:38:31;4.80;;;2.07;;
59770;SDS011;45649;53.014;6.600;2022-07-29T15:40:58;1.73;;;1.63;;
59770;SDS011;45649;53.014;6.600;2022-07-29T15:43:23;5.20;;;2.60;;